Time;durP1;ratioP1;P1;durP2;ratioP2;P2;SDS_P1;SDS_P2;PMS_P1;PMS_P2;Temp;Humidity;BMP_temperature;BMP_pressure;BME280_temperature;BME280_humidity;BME280_pressure;Samples;Min_cycle;Max_cycle;Signal;HPM_P1;HPM_P2
2023/05/10 00:01:02;;;;;;;0.60;0.60;;;;;;;14.61;100.00;95756.91;5011593;28;102633;-62
2023/05/10 00:03:29;;;;;;;0.93;0.73;;;;;;;14.57;100.00;95752.44;5030280;27;101830;-62
2023/05/10 00:05:56;;;;;;;0.70;0.70;;;;;;;14.59;100.00;95751.06;5028803;28;105610;-62
2023/05/10 00:08:25;;;;;;;0.73;0.73;;;;;;;14.67;100.00;95752.28;5022910;27;103050;-62
2023/05/10 00:10:52;;;;;;;0.63;0.60;;;;;;;14.64;100.00;95747.50;5008624;28;102073;-62
2023/05/10 00:13:19;;;;;;;0.60;0.60;;;;;;;14.66;100.00;95745.34;5008873;28;105146;-62
2023/05/10 00:15:47;;;;;;;0.70;0.70;;;;;;;14.63;100.00;95749.41;5014270;28;102582;-62
2023/05/10 00:18:14;;;;;;;0.80;0.80;;;;;;;14.67;100.00;95741.56;5014747;28;102351;-62
2023/05/10 00:20:41;;;;;;;0.80;0.80;;;;;;;14.68;100.00;95743.97;5027501;28;105451;-62
2023/05/10 00:23:08;;;;;;;1.17;0.83;;;;;;;14.68;100.00;95738.63;5029959;27;102163;-62
2023/05/10 00:25:36;;;;;;;0.80;0.80;;;;;;;14.67;100.00;95741.56;5029107;27;102338;-62
2023/05/10 00:28:03;;;;;;;1.00;0.80;;;;;;;14.69;100.00;95745.56;5013761;27;101831;-62
2023/05/10 00:30:30;;;;;;;1.03;0.70;;;;;;;14.72;100.00;95734.25;5029763;28;101849;-62
2023/05/10 00:32:57;;;;;;;1.53;0.80;;;;;;;14.78;100.00;95735.75;5028611;28;106027;-62
2023/05/10 00:35:24;;;;;;;2.57;0.90;;;;;;;14.70;100.00;95736.44;5030097;28;103935;-62
2023/05/10 00:37:51;;;;;;;0.80;0.80;;;;;;;14.73;100.00;95743.09;5025125;28;105351;-62
2023/05/10 00:40:18;;;;;;;0.90;0.90;;;;;;;14.68;100.00;95732.47;5007647;28;105828;-62
2023/05/10 00:42:51;;;;;;;0.50;0.50;;;;;;;14.54;100.00;95739.63;5009403;28;102068;-62
2023/05/10 00:45:18;;;;;;;0.60;0.50;;;;;;;14.58;100.00;95738.78;5017655;28;102297;-62
2023/05/10 00:47:46;;;;;;;0.70;0.70;;;;;;;14.54;100.00;95737.75;5030958;28;105841;-62
2023/05/10 00:50:14;;;;;;;0.50;0.50;;;;;;;14.56;100.00;95745.50;5031290;28;101988;-62
2023/05/10 00:52:41;;;;;;;0.70;0.70;;;;;;;14.45;100.00;95733.34;5031780;27;102410;-62
2023/05/10 00:55:10;;;;;;;0.50;0.50;;;;;;;14.43;100.00;95735.50;4991189;28;105660;-62
2023/05/10 00:57:38;;;;;;;0.60;0.50;;;;;;;14.51;100.00;95737.53;4996886;28;102009;-62
2023/05/10 01:00:09;;;;;;;0.90;0.50;;;;;;;14.51;100.00;95734.88;5030954;28;105794;-62
2023/05/10 01:02:36;;;;;;;0.73;0.60;;;;;;;14.50;100.00;95735.97;5020875;28;103281;-62
2023/05/10 01:05:05;;;;;;;0.40;0.40;;;;;;;14.44;100.00;95734.44;4991516;28;104487;-62
2023/05/10 01:07:32;;;;;;;1.07;0.60;;;;;;;14.39;100.00;95734.50;5006087;28;105768;-62
2023/05/10 01:09:59;;;;;;;0.70;0.50;;;;;;;14.40;100.00;95736.88;5030907;28;102053;-61
2023/05/10 01:12:26;;;;;;;0.63;0.63;;;;;;;14.40;100.00;95741.44;5024991;28;105735;-62
2023/05/10 01:14:53;;;;;;;1.33;0.50;;;;;;;14.36;100.00;95740.44;5010868;28;104146;-62
2023/05/10 01:17:23;;;;;;;1.53;0.60;;;;;;;14.34;100.00;95745.28;5012668;28;102056;-62
2023/05/10 01:19:50;;;;;;;1.40;0.80;;;;;;;14.31;100.00;95743.97;5031324;28;105373;-62
2023/05/10 01:22:43;;;;;;;0.90;0.60;;;;;;;14.27;100.00;95740.28;5031175;28;101954;-62
2023/05/10 01:25:32;;;;;;;0.33;0.33;;;;;;;14.24;100.00;95742.75;5031380;28;105613;-62
2023/05/10 01:28:29;;;;;;;1.37;0.53;;;;;;;14.27;100.00;95742.16;5027507;27;104670;-62
2023/05/10 01:31:17;;;;;;;0.50;0.50;;;;;;;14.28;100.00;95735.75;5011338;28;101839;-62
2023/05/10 01:33:51;;;;;;;0.87;0.40;;;;;;;14.13;100.00;95741.25;5009014;28;105096;-62
2023/05/10 01:36:28;;;;;;;0.47;0.47;;;;;;;14.12;100.00;95745.78;5011594;28;105891;-62
2023/05/10 01:39:02;;;;;;;1.17;0.97;;;;;;;14.02;100.00;95742.47;5019842;28;101984;-62
2023/05/10 01:41:40;;;;;;;0.60;0.60;;;;;;;14.06;100.00;95746.94;5029981;27;102772;-62
2023/05/10 01:44:17;;;;;;;1.13;1.03;;;;;;;14.06;100.00;95738.94;5013780;28;105786;-62
2023/05/10 01:46:50;;;;;;;0.50;0.50;;;;;;;13.97;100.00;95745.22;5012578;28;102778;-62
2023/05/10 01:49:25;;;;;;;0.60;0.60;;;;;;;13.95;100.00;95753.50;5019619;28;105254;-62
2023/05/10 01:51:55;;;;;;;0.70;0.70;;;;;;;13.90;100.00;95748.22;5031111;28;102251;-62
2023/05/10 01:54:24;;;;;;;0.83;0.70;;;;;;;13.93;100.00;95749.53;5029132;27;102846;-62
2023/05/10 01:56:57;;;;;;;0.57;0.57;;;;;;;14.01;100.00;95759.59;5013859;28;104758;-62
2023/05/10 01:59:30;;;;;;;0.50;0.50;;;;;;;14.00;100.00;95750.00;5018774;28;102056;-62
2023/05/10 02:01:59;;;;;;;0.70;0.70;;;;;;;14.00;100.00;95752.66;5010706;28;106342;-62
2023/05/10 02:04:29;;;;;;;0.60;0.60;;;;;;;13.97;100.00;95753.22;5023416;28;102532;-62
2023/05/10 02:06:57;;;;;;;1.50;0.70;;;;;;;13.98;100.00;95744.94;5019722;27;102101;-62
2023/05/10 02:09:28;;;;;;;0.50;0.50;;;;;;;14.01;100.00;95754.25;5010105;28;104244;-62
2023/05/10 02:11:58;;;;;;;0.73;0.60;;;;;;;14.03;100.00;95752.06;5026164;28;101850;-62
2023/05/10 02:14:27;;;;;;;0.50;0.50;;;;;;;13.99;100.00;95751.06;5013200;28;105113;-62
2023/05/10 02:16:56;;;;;;;1.20;0.50;;;;;;;13.97;100.00;95754.03;5030292;28;105759;-62
2023/05/10 02:19:24;;;;;;;7.40;0.70;;;;;;;14.00;100.00;95758.78;5030035;28;102013;-62
2023/05/10 02:21:54;;;;;;;0.50;0.50;;;;;;;13.99;100.00;95753.72;5030419;28;105143;-62
2023/05/10 02:24:23;;;;;;;0.73;0.60;;;;;;;13.91;100.00;95757.81;5029396;28;103803;-62
2023/05/10 02:26:51;;;;;;;0.50;0.50;;;;;;;13.87;100.00;95756.84;5030518;28;102101;-62
2023/05/10 02:29:20;;;;;;;0.50;0.50;;;;;;;13.83;100.00;95761.16;5021519;28;105247;-62
2023/05/10 02:31:50;;;;;;;0.43;0.40;;;;;;;13.86;100.00;95755.25;5010453;28;101885;-62
2023/05/10 02:34:18;;;;;;;0.87;0.40;;;;;;;13.81;100.00;95757.97;5011274;28;105636;-62
2023/05/10 02:36:46;;;;;;;0.43;0.43;;;;;;;13.83;100.00;95752.31;5011235;28;102538;-62
2023/05/10 02:39:16;;;;;;;1.53;0.47;;;;;;;13.88;100.00;95758.41;5021029;28;102180;-62
2023/05/10 02:41:44;;;;;;;0.53;0.50;;;;;;;13.79;100.00;95757.44;5031649;27;102855;-62
2023/05/10 02:44:12;;;;;;;0.60;0.60;;;;;;;13.68;100.00;95749.84;5030237;27;103050;-62
2023/05/10 02:46:40;;;;;;;0.73;0.60;;;;;;;13.73;100.00;95757.81;5030346;28;102020;-62
2023/05/10 02:49:07;;;;;;;2.57;0.70;;;;;;;13.72;100.00;95753.53;5023192;28;105663;-62
2023/05/10 02:51:37;;;;;;;1.23;0.70;;;;;;;13.70;100.00;95755.69;5009661;28;101925;-61
2023/05/10 02:54:10;;;;;;;0.63;0.30;;;;;;;13.67;100.00;95748.22;5009710;28;106465;-62
2023/05/10 02:56:48;;;;;;;1.20;0.63;;;;;;;13.67;100.00;95749.03;5009459;28;105111;-62
2023/05/10 02:59:15;;;;;;;1.27;0.40;;;;;;;13.69;100.00;95754.88;5018503;28;101850;-62
2023/05/10 03:01:42;;;;;;;0.93;0.70;;;;;;;13.66;100.00;95754.66;5023755;28;105363;-62
2023/05/10 03:04:10;;;;;;;1.07;0.50;;;;;;;13.68;100.00;95749.84;5009258;28;105131;-62
2023/05/10 03:06:37;;;;;;;1.23;0.40;;;;;;;13.70;100.00;95758.38;5009576;28;101894;-62
2023/05/10 03:09:05;;;;;;;0.50;0.50;;;;;;;13.69;100.00;95759.44;5016537;28;104827;-62
2023/05/10 03:11:54;;;;;;;0.83;0.60;;;;;;;13.65;100.00;95761.91;5032209;28;105364;-62
2023/05/10 03:14:33;;;;;;;1.10;0.50;;;;;;;13.62;100.00;95756.34;5029624;28;105345;-62
2023/05/10 03:17:08;;;;;;;0.63;0.50;;;;;;;13.55;100.00;95762.00;5029018;28;105678;-62
2023/05/10 03:19:45;;;;;;;0.40;0.40;;;;;;;13.60;100.00;95753.94;5029155;28;102200;-62
2023/05/10 03:22:18;;;;;;;0.53;0.50;;;;;;;13.65;100.00;95766.44;5029334;28;104997;-62
2023/05/10 03:24:47;;;;;;;0.43;0.43;;;;;;;13.55;100.00;95766.53;5028488;28;105541;-62
2023/05/10 03:27:16;;;;;;;1.23;0.50;;;;;;;13.54;100.00;95772.97;5029603;28;101852;-62
2023/05/10 03:29:46;;;;;;;0.50;0.50;;;;;;;13.59;100.00;95775.59;5014415;28;105079;-62
2023/05/10 03:32:13;;;;;;;0.63;0.60;;;;;;;13.55;100.00;95777.22;5008874;28;105045;-62
2023/05/10 03:34:43;;;;;;;0.60;0.60;;;;;;;13.59;100.00;95779.06;5013685;28;102194;-62
2023/05/10 03:37:10;;;;;;;1.43;0.47;;;;;;;13.49;100.00;95771.16;5008883;28;105516;-62
2023/05/10 03:39:37;;;;;;;0.67;0.37;;;;;;;13.60;100.00;95763.81;5010527;28;101991;-62
2023/05/10 03:42:07;;;;;;;1.10;0.40;;;;;;;13.61;100.00;95770.75;5009461;28;105440;-62
2023/05/10 03:44:35;;;;;;;0.63;0.47;;;;;;;13.55;100.00;95782.56;5008584;28;105408;-62
2023/05/10 03:47:02;;;;;;;1.40;0.77;;;;;;;13.50;100.00;95791.44;5009219;28;101950;-62
2023/05/10 03:49:29;;;;;;;0.60;0.60;;;;;;;13.54;100.00;95789.00;5010018;28;104901;-62
2023/05/10 03:51:56;;;;;;;0.50;0.50;;;;;;;13.48;100.00;95800.81;5008403;28;105930;-62
2023/05/10 03:54:23;;;;;;;0.70;0.40;;;;;;;13.50;100.00;95785.28;5021223;28;101925;-62
2023/05/10 03:56:50;;;;;;;1.33;0.50;;;;;;;13.50;100.00;95790.63;5033459;27;102864;-62
2023/05/10 03:59:19;;;;;;;1.13;0.40;;;;;;;13.47;100.00;95792.00;5015325;28;101920;-62
2023/05/10 04:01:47;;;;;;;0.33;0.33;;;;;;;13.50;100.00;95804.78;5010050;28;105231;-62
2023/05/10 04:04:14;;;;;;;0.40;0.40;;;;;;;13.52;100.00;95796.50;5008644;28;104747;-62
2023/05/10 04:06:41;;;;;;;0.40;0.40;;;;;;;13.49;100.00;95799.72;5009022;28;102269;-62
2023/05/10 04:09:09;;;;;;;0.80;0.47;;;;;;;13.51;100.00;95808.28;5008562;28;103689;-62
2023/05/10 04:11:36;;;;;;;0.50;0.50;;;;;;;13.45;100.00;95798.69;5007803;28;105058;-62
2023/05/10 04:14:03;;;;;;;1.77;0.80;;;;;;;13.42;100.00;95809.97;5026057;28;102103;-62
2023/05/10 04:16:30;;;;;;;1.37;1.20;;;;;;;13.42;100.00;95809.97;5015608;27;102026;-62
2023/05/10 04:18:59;;;;;;;1.30;1.10;;;;;;;13.45;100.00;95814.72;5020903;28;103133;-62
2023/05/10 04:21:26;;;;;;;1.13;0.87;;;;;;;13.40;100.00;95806.78;5023623;28;103028;-62
2023/05/10 04:23:53;;;;;;;0.90;0.70;;;;;;;13.37;100.00;95812.66;5007873;28;105272;-62
2023/05/10 04:26:20;;;;;;;0.57;0.57;;;;;;;13.45;100.00;95812.03;5009707;28;101872;-62
2023/05/10 04:28:47;;;;;;;1.07;0.60;;;;;;;13.35;100.00;95809.50;5015240;28;105890;-61
2023/05/10 04:31:14;;;;;;;0.87;0.60;;;;;;;13.40;100.00;95822.81;5024771;27;102600;-62
2023/05/10 04:33:43;;;;;;;0.50;0.50;;;;;;;13.38;100.00;95816.94;5008929;28;101986;-62
2023/05/10 04:36:11;;;;;;;1.37;0.80;;;;;;;13.42;100.00;95821.41;5010517;28;102657;-62
2023/05/10 04:38:38;;;;;;;0.70;0.70;;;;;;;13.37;100.00;95823.34;4990715;28;105118;-61
2023/05/10 04:41:07;;;;;;;0.50;0.50;;;;;;;13.42;100.00;95821.41;5014267;28;101927;-62
2023/05/10 04:44:11;;;;;;;1.47;0.87;;;;;;;13.35;100.00;95823.63;5009501;28;102583;-62
2023/05/10 04:46:38;;;;;;;2.57;0.60;;;;;;;13.39;100.00;95821.19;5008933;28;101942;-60
2023/05/10 04:49:05;;;;;;;2.67;0.60;;;;;;;13.51;100.00;95829.66;5018874;28;102308;-61
2023/05/10 04:51:34;;;;;;;0.63;0.50;;;;;;;13.41;100.00;95821.72;5027938;28;104064;-61
2023/05/10 04:54:03;;;;;;;0.67;0.60;;;;;;;13.44;100.00;95829.16;5020735;27;101848;-61
2023/05/10 04:56:30;;;;;;;1.77;0.53;;;;;;;13.38;100.00;95825.75;5010135;28;102839;-61
2023/05/10 04:58:57;;;;;;;1.80;0.50;;;;;;;13.45;100.00;95820.88;5017028;28;105792;-61
2023/05/10 05:01:24;;;;;;;1.33;0.70;;;;;;;13.47;100.00;95828.59;5024051;28;103255;-61
2023/05/10 05:03:56;;;;;;;0.93;0.50;;;;;;;13.52;100.00;95824.00;4988101;28;106983;-61
2023/05/10 05:06:24;;;;;;;0.63;0.50;;;;;;;13.49;100.00;95826.44;4990065;28;101851;-60
2023/05/10 05:08:52;;;;;;;0.77;0.77;;;;;;;13.50;100.00;95828.03;5002631;28;102341;-60
2023/05/10 05:11:20;;;;;;;1.13;0.60;;;;;;;13.53;100.00;95825.59;5018407;27;103078;-60
2023/05/10 05:13:47;;;;;;;2.87;0.80;;;;;;;13.60;100.00;95833.28;5015768;28;102265;-61
2023/05/10 05:16:14;;;;;;;2.53;0.77;;;;;;;13.46;100.00;95821.69;5029986;27;102302;-61
2023/05/10 05:18:41;;;;;;;2.53;0.90;;;;;;;13.52;100.00;95834.69;5029050;27;102602;-61
2023/05/10 05:21:16;;;;;;;1.30;0.73;;;;;;;13.54;100.00;95831.72;5028440;28;101934;-61
2023/05/10 05:23:57;;;;;;;3.60;0.67;;;;;;;13.49;100.00;95837.13;5032463;28;102558;-61
2023/05/10 05:26:24;;;;;;;1.57;0.60;;;;;;;13.42;100.00;95834.00;5029757;27;101730;-61
2023/05/10 05:28:54;;;;;;;1.10;0.57;;;;;;;13.38;100.00;95836.44;5029471;27;102289;-61
2023/05/10 05:31:21;;;;;;;2.93;0.90;;;;;;;13.42;100.00;95831.31;5029002;28;102642;-61
2023/05/10 05:33:49;;;;;;;1.03;0.70;;;;;;;13.42;100.00;95836.66;5012917;28;101960;-61
2023/05/10 05:36:16;;;;;;;1.87;0.57;;;;;;;13.40;100.00;95834.25;5011538;28;103856;-61
2023/05/10 05:38:43;;;;;;;1.23;0.80;;;;;;;13.43;100.00;95843.59;5012122;28;102681;-61
2023/05/10 05:41:11;;;;;;;3.33;1.37;;;;;;;13.43;100.00;95838.25;5011464;28;102082;-61
2023/05/10 05:43:57;;;;;;;1.97;0.90;;;;;;;13.46;100.00;95846.50;5011479;28;105931;-61
2023/05/10 05:46:24;;;;;;;1.90;0.70;;;;;;;13.54;100.00;95842.41;5018956;28;102754;-61
2023/05/10 05:48:50;;;;;;;3.90;1.13;;;;;;;13.47;100.00;95847.31;5031601;28;105168;-60
2023/05/10 05:51:17;;;;;;;3.63;0.90;;;;;;;13.40;100.00;95844.94;5030913;28;105953;-60
2023/05/10 05:53:45;;;;;;;2.47;0.80;;;;;;;13.46;100.00;95848.38;5031603;28;102001;-61
2023/05/10 05:56:13;;;;;;;2.07;0.80;;;;;;;13.53;100.00;95854.19;5030861;28;106422;-60
2023/05/10 05:58:40;;;;;;;1.00;0.90;;;;;;;13.55;100.00;95852.03;5029939;28;103906;-61
2023/05/10 06:01:08;;;;;;;0.87;0.70;;;;;;;13.52;100.00;95860.63;5030806;28;102082;-61
2023/05/10 06:03:36;;;;;;;1.17;0.70;;;;;;;13.42;100.00;95864.16;5032342;27;102441;-60
2023/05/10 06:06:03;;;;;;;0.97;0.40;;;;;;;13.35;100.00;95871.69;5031714;27;103224;-60
2023/05/10 06:08:30;;;;;;;2.00;0.50;;;;;;;13.47;100.00;95868.66;5035608;27;101918;-61
2023/05/10 06:10:57;;;;;;;0.73;0.73;;;;;;;13.57;100.00;95869.38;5029872;28;105325;-60
2023/05/10 06:13:28;;;;;;;1.57;0.60;;;;;;;13.53;100.00;95870.22;5032018;27;101818;-61
2023/05/10 06:15:55;;;;;;;2.80;0.60;;;;;;;13.56;100.00;95878.47;5029396;27;102373;-60
2023/05/10 06:18:22;;;;;;;1.77;0.90;;;;;;;13.49;100.00;95885.19;5025220;28;103063;-60
2023/05/10 06:20:51;;;;;;;1.73;0.73;;;;;;;13.41;100.00;95889.28;5030257;28;102019;-61
2023/05/10 06:23:18;;;;;;;0.80;0.80;;;;;;;13.47;100.00;95901.50;5029583;28;104884;-60
2023/05/10 06:25:45;;;;;;;0.50;0.50;;;;;;;13.37;100.00;95901.59;5019983;28;106000;-61
2023/05/10 06:28:12;;;;;;;0.70;0.70;;;;;;;13.38;100.00;95911.22;5009657;28;102029;-60
2023/05/10 06:30:40;;;;;;;2.73;0.90;;;;;;;13.33;100.00;95902.44;5012924;28;105039;-60
2023/05/10 06:33:07;;;;;;;1.43;1.17;;;;;;;13.29;100.00;95907.53;5015295;28;103311;-60
2023/05/10 06:35:34;;;;;;;1.60;1.20;;;;;;;13.21;100.00;95913.47;5028888;28;104890;-61
2023/05/10 06:38:01;;;;;;;2.87;1.70;;;;;;;13.19;100.00;95917.50;5016774;27;104347;-61
2023/05/10 06:40:28;;;;;;;2.83;1.30;;;;;;;13.12;100.00;95912.47;5008248;28;103789;-60
2023/05/10 06:42:55;;;;;;;2.50;1.20;;;;;;;13.21;100.00;95912.66;5000159;28;105644;-60
2023/05/10 06:45:21;;;;;;;5.27;1.60;;;;;;;13.27;100.00;95916.91;5008971;28;106672;-60
2023/05/10 06:47:50;;;;;;;2.87;1.50;;;;;;;13.24;100.00;95912.13;5009764;28;101889;-60
2023/05/10 06:50:17;;;;;;;1.23;0.77;;;;;;;13.25;100.00;95921.72;5016957;28;102586;-60
2023/05/10 06:52:44;;;;;;;0.93;0.60;;;;;;;13.31;100.00;95912.59;5021328;28;102242;-62
2023/05/10 06:55:18;;;;;;;2.10;0.70;;;;;;;13.39;100.00;95912.00;5025688;28;104977;-63
2023/05/10 06:57:45;;;;;;;0.50;0.50;;;;;;;13.40;100.00;95922.41;5010747;28;105407;-62
2023/05/10 07:00:13;;;;;;;2.23;0.73;;;;;;;13.29;100.00;95930.75;5000956;28;101929;-63
2023/05/10 07:02:40;;;;;;;0.87;0.53;;;;;;;13.39;100.00;95923.47;5013919;28;105220;-62
2023/05/10 07:05:23;;;;;;;0.67;0.57;;;;;;;13.32;100.00;95924.88;5010368;28;105117;-62
2023/05/10 07:07:50;;;;;;;0.57;0.57;;;;;;;13.28;100.00;95926.50;5010228;28;102110;-62
2023/05/10 07:10:17;;;;;;;1.13;0.60;;;;;;;13.09;100.00;95922.91;5007191;28;102683;-63
2023/05/10 07:12:44;;;;;;;2.60;1.23;;;;;;;12.99;100.00;95944.31;4998175;28;105226;-62
2023/05/10 07:15:33;;;;;;;1.20;0.70;;;;;;;12.93;100.00;95945.38;5024487;28;102895;-62
2023/05/10 07:18:00;;;;;;;0.70;0.70;;;;;;;13.00;100.00;95945.91;5029612;28;105081;-62
2023/05/10 07:20:28;;;;;;;0.83;0.70;;;;;;;13.02;100.00;95949.91;5008442;28;102062;-62
2023/05/10 07:22:55;;;;;;;0.50;0.50;;;;;;;13.03;100.00;95940.81;4989869;28;104830;-62
2023/05/10 07:25:54;;;;;;;0.90;0.50;;;;;;;12.81;100.00;95953.72;5007611;28;105523;-62
2023/05/10 07:28:21;;;;;;;1.13;0.53;;;;;;;12.76;100.00;95943.06;5013550;28;102588;-62
2023/05/10 07:30:48;;;;;;;0.40;0.40;;;;;;;12.80;100.00;95946.00;5004387;28;105245;-63
2023/05/10 07:33:15;;;;;;;0.77;0.50;;;;;;;12.70;100.00;95943.38;5011073;28;105660;-62
2023/05/10 07:35:44;;;;;;;0.53;0.50;;;;;;;12.62;100.00;95955.41;5033096;28;103186;-62
2023/05/10 07:38:11;;;;;;;0.57;0.47;;;;;;;12.48;100.00;95953.59;5014235;28;105169;-62
2023/05/10 07:40:40;;;;;;;0.80;0.50;;;;;;;12.54;100.00;95960.50;5015782;28;102008;-62
2023/05/10 07:43:07;;;;;;;0.93;0.70;;;;;;;12.47;100.00;95965.31;5011471;28;104857;-62
2023/05/10 07:45:34;;;;;;;0.60;0.60;;;;;;;12.49;100.00;95963.19;5009204;28;105696;-62
2023/05/10 07:48:01;;;;;;;1.17;0.80;;;;;;;12.59;100.00;95965.81;5019255;28;102341;-62
2023/05/10 07:50:28;;;;;;;2.20;0.60;;;;;;;12.62;100.00;95965.28;5016288;28;105277;-62
2023/05/10 07:52:56;;;;;;;0.60;0.60;;;;;;;12.53;100.00;95969.59;5021535;27;105289;-62
2023/05/10 07:55:23;;;;;;;0.70;0.70;;;;;;;12.61;100.00;95969.00;5015225;28;102238;-61
2023/05/10 07:57:50;;;;;;;1.20;0.97;;;;;;;12.57;100.00;95968.75;5013423;28;103986;-61
2023/05/10 08:00:20;;;;;;;0.73;0.73;;;;;;;12.61;100.00;95963.69;5020012;28;101874;-61
2023/05/10 08:02:47;;;;;;;1.43;0.90;;;;;;;12.66;100.00;95975.13;5020867;28;103359;-61
2023/05/10 08:05:56;;;;;;;1.80;0.90;;;;;;;12.70;100.00;95972.72;5023318;28;105167;-61
2023/05/10 08:08:25;;;;;;;1.67;0.80;;;;;;;12.76;100.00;95971.63;5020661;28;102103;-61
2023/05/10 08:10:52;;;;;;;1.07;0.80;;;;;;;12.98;100.00;95972.84;5018100;28;105167;-61
2023/05/10 08:13:37;;;;;;;1.07;0.80;;;;;;;13.02;100.00;95975.81;5012471;28;105114;-61
2023/05/10 08:16:03;;;;;;;0.70;0.70;;;;;;;13.15;100.00;95976.00;5013679;28;102113;-61
2023/05/10 08:18:30;;;;;;;1.20;1.10;;;;;;;13.38;100.00;95966.50;5027983;28;105208;-61
2023/05/10 08:21:00;;;;;;;1.20;1.00;;;;;;;13.82;100.00;95964.53;5018141;28;105371;-62
2023/05/10 08:23:33;;;;;;;1.30;1.00;;;;;;;13.97;100.00;95969.75;5018001;28;105170;-61
2023/05/10 08:26:00;;;;;;;2.70;1.60;;;;;;;14.01;100.00;95962.78;5009872;28;102716;-62
2023/05/10 08:28:27;;;;;;;2.10;1.90;;;;;;;14.28;100.00;95960.41;5016763;28;102066;-62
2023/05/10 08:30:54;;;;;;;0.87;0.87;;;;;;;14.02;100.00;95967.03;5014110;27;102195;-61
2023/05/10 08:33:26;;;;;;;1.87;0.97;;;;;;;13.96;100.00;95970.84;5013638;28;104165;-61
2023/05/10 08:35:53;;;;;;;1.47;0.80;;;;;;;14.12;100.00;95966.94;5014045;28;102159;-61
2023/05/10 08:38:20;;;;;;;1.80;1.40;;;;;;;14.04;100.00;95962.19;5018024;28;102310;-61
2023/05/10 08:40:50;;;;;;;3.03;1.93;;;;;;;14.10;100.00;95969.91;5005616;28;104293;-74
2023/05/10 08:43:30;;;;;;;2.50;1.77;;;;;;;14.17;100.00;95967.69;5023213;28;102232;-66
2023/05/10 08:45:57;;;;;;;3.30;2.70;;;;;;;14.33;100.00;95966.47;5022000;28;105769;-62
2023/05/10 08:48:25;;;;;;;2.50;1.57;;;;;;;14.46;100.00;95962.34;5026248;28;102066;-63
2023/05/10 08:50:55;;;;;;;1.40;1.40;;;;;;;14.90;100.00;95966.34;5020448;28;104853;-62
2023/05/10 08:54:12;;;;;;;1.63;1.50;;;;;;;14.96;100.00;95965.22;5021216;28;105649;-62
2023/05/10 08:56:40;;;;;;;2.10;2.00;;;;;;;15.14;100.00;95958.25;5011803;28;101929;-62
2023/05/10 08:59:07;;;;;;;1.50;1.33;;;;;;;15.28;100.00;95957.28;4989929;28;102504;-62
2023/05/10 09:01:36;;;;;;;1.50;1.40;;;;;;;15.74;100.00;95970.78;4992238;28;102529;-61
2023/05/10 09:04:17;;;;;;;1.70;1.20;;;;;;;15.48;100.00;95972.28;4994478;28;101853;-61
2023/05/10 09:06:44;;;;;;;1.43;1.23;;;;;;;15.10;100.00;95965.28;5016221;28;105260;-63
2023/05/10 09:09:11;;;;;;;1.90;1.70;;;;;;;15.22;100.00;95968.34;5033087;27;101887;-62
2023/05/10 09:11:40;;;;;;;1.27;1.17;;;;;;;15.42;100.00;95965.41;4977944;28;105055;-62
2023/05/10 09:14:07;;;;;;;1.37;1.10;;;;;;;15.31;100.00;95954.00;4990863;28;105345;-62
2023/05/10 09:16:34;;;;;;;2.20;1.27;;;;;;;15.01;100.00;95949.06;4990935;28;101968;-62
2023/05/10 09:19:00;;;;;;;0.97;0.97;;;;;;;14.87;100.00;95958.88;4990895;28;104774;-62
2023/05/10 09:21:28;;;;;;;1.20;1.10;;;;;;;14.48;100.00;95969.00;4991146;28;102622;-62
2023/05/10 09:23:55;;;;;;;1.23;1.20;;;;;;;14.32;100.00;95953.38;4991933;28;101854;-62
2023/05/10 09:26:23;;;;;;;2.67;1.10;;;;;;;14.35;100.00;95969.69;4993743;28;103546;-62
2023/05/10 09:28:56;;;;;;;1.77;1.03;;;;;;;14.37;100.00;95974.72;4991759;28;101868;-62
2023/05/10 09:31:25;;;;;;;1.40;1.30;;;;;;;14.52;100.00;95974.56;4992072;28;102752;-62
2023/05/10 09:33:52;;;;;;;1.90;1.80;;;;;;;14.49;100.00;95969.81;4989637;28;105253;-62
2023/05/10 09:36:19;;;;;;;1.60;1.40;;;;;;;14.38;100.00;95969.09;5011236;28;101804;-62
2023/05/10 09:38:48;;;;;;;6.10;5.50;;;;;;;14.36;100.00;95959.75;5010591;28;105225;-63
2023/05/10 09:41:19;;;;;;;4.30;3.90;;;;;;;14.10;100.00;95966.41;4997600;28;102840;-62
2023/05/10 09:43:46;;;;;;;4.40;4.10;;;;;;;14.06;100.00;95965.41;4991703;28;101852;-62
2023/05/10 09:46:16;;;;;;;1.33;1.00;;;;;;;13.91;100.00;95969.00;4990467;28;105804;-62
2023/05/10 09:48:44;;;;;;;1.90;1.00;;;;;;;14.08;100.00;95958.69;4994594;28;102861;-62
2023/05/10 09:51:11;;;;;;;2.57;1.20;;;;;;;14.10;100.00;95955.72;4991401;28;102465;-62
2023/05/10 09:53:38;;;;;;;1.43;1.37;;;;;;;14.22;100.00;95958.88;4990943;28;102728;-62
2023/05/10 09:56:05;;;;;;;1.27;1.00;;;;;;;14.39;100.00;95967.25;4991486;28;101991;-62
2023/05/10 09:58:37;;;;;;;1.97;1.00;;;;;;;14.38;100.00;95962.97;4991798;28;102511;-62
2023/05/10 10:01:05;;;;;;;1.40;1.30;;;;;;;14.47;100.00;95955.91;4990556;28;103229;-62
2023/05/10 10:03:33;;;;;;;3.00;2.80;;;;;;;14.73;100.00;95954.53;4991465;28;101874;-62
2023/05/10 10:06:00;;;;;;;3.60;3.30;;;;;;;14.78;100.00;95955.25;4991981;28;102371;-62
2023/05/10 10:08:28;;;;;;;2.70;2.50;;;;;;;14.93;100.00;95952.38;4990464;28;102567;-62
2023/05/10 10:10:55;;;;;;;6.47;1.80;;;;;;;15.18;100.00;95951.25;5010548;28;102005;-62
2023/05/10 10:13:22;;;;;;;2.87;1.50;;;;;;;15.37;100.00;95958.22;4992792;28;105372;-62
2023/05/10 10:15:51;;;;;;;3.80;1.30;;;;;;;15.47;100.00;95960.75;5009295;28;102002;-62
2023/05/10 10:18:19;;;;;;;3.07;2.77;;;;;;;15.25;100.00;95957.84;5024190;28;102369;-62
2023/05/10 10:20:48;;;;;;;1.53;1.40;;;;;;;15.03;100.00;95954.13;5027303;27;103360;-62
2023/05/10 10:23:15;;;;;;;1.90;1.30;;;;;;;15.09;100.00;95948.41;5031652;27;102457;-62
2023/05/10 10:25:44;;;;;;;1.60;1.50;;;;;;;15.27;100.00;95950.28;5029701;27;102346;-62
2023/05/10 10:28:23;;;;;;;1.70;1.13;;;;;;;15.11;100.00;95946.25;5030272;27;102801;-62
2023/05/10 10:30:55;;;;;;;1.33;1.23;;;;;;;15.07;100.00;95960.50;5019537;28;102072;-62
2023/05/10 10:33:55;;;;;;;1.50;1.40;;;;;;;14.64;100.00;95961.59;5034446;27;102510;-62
2023/05/10 10:36:26;;;;;;;1.80;1.40;;;;;;;14.38;100.00;95969.09;5009280;28;102566;-62
2023/05/10 10:39:00;;;;;;;1.80;1.70;;;;;;;14.30;100.00;95971.59;5011213;28;102388;-62
2023/05/10 10:41:33;;;;;;;2.33;1.70;;;;;;;14.35;100.00;95971.56;5018060;28;103252;-62
2023/05/10 10:44:25;;;;;;;2.17;1.37;;;;;;;14.38;100.00;95973.69;5019673;28;103662;-62
2023/05/10 10:47:05;;;;;;;1.93;1.37;;;;;;;14.45;100.00;95968.78;5028090;28;105135;-62
2023/05/10 10:49:33;;;;;;;1.50;1.40;;;;;;;14.50;100.00;95971.41;5027560;28;105942;-62
2023/05/10 10:52:35;;;;;;;1.30;1.20;;;;;;;14.29;100.00;95972.69;5014150;28;101962;-62
2023/05/10 10:55:06;;;;;;;1.73;1.63;;;;;;;14.46;100.00;95973.84;4968000;28;103835;-62
2023/05/10 10:57:34;;;;;;;2.80;1.87;;;;;;;14.63;100.00;95978.72;5015712;27;102769;-62
2023/05/10 11:00:23;;;;;;;1.57;1.47;;;;;;;14.53;100.00;95976.16;4993055;28;104875;-63
2023/05/10 11:02:52;;;;;;;0.90;0.90;;;;;;;14.22;100.00;95969.56;5010469;28;102527;-62
2023/05/10 11:05:41;;;;;;;2.10;1.83;;;;;;;14.19;100.00;95972.75;5011107;28;102046;-63
2023/05/10 11:08:13;;;;;;;1.30;1.20;;;;;;;13.96;100.00;95976.97;5006270;28;102481;-62
2023/05/10 11:10:41;;;;;;;1.33;0.80;;;;;;;13.77;100.00;95973.41;5011853;28;105410;-62
2023/05/10 11:13:10;;;;;;;1.63;0.80;;;;;;;14.09;100.00;95970.16;5029523;28;102448;-62
2023/05/10 11:15:38;;;;;;;0.77;0.73;;;;;;;14.33;100.00;95979.06;5024740;27;102333;-62
2023/05/10 11:18:19;;;;;;;1.13;0.83;;;;;;;14.44;100.00;95980.56;5013475;28;102806;-62
2023/05/10 11:20:51;;;;;;;0.97;0.90;;;;;;;14.47;100.00;95977.31;5004413;28;102633;-62
2023/05/10 11:23:20;;;;;;;0.90;0.90;;;;;;;14.47;100.00;95975.44;4990255;28;102601;-62
2023/05/10 11:25:50;;;;;;;2.63;1.00;;;;;;;14.30;100.00;95976.94;4999872;28;102353;-62
2023/05/10 11:28:18;;;;;;;1.13;1.03;;;;;;;14.46;100.00;95978.38;5018875;27;102953;-62
2023/05/10 11:30:46;;;;;;;1.43;1.30;;;;;;;14.51;100.00;95978.34;5012789;28;103267;-62